• Join FlightAware (Why Join?)
  • Login
  • US Flag 
12:59PM EDT


 

Airport Tracker/Info


-or-


 

Live Flight TrackerFlight Track Log ✈ SWA167 ✈ 06-May-2013 ✈ KDAL - KHRL

Flight Track Log - Related Links

Times and Time Zones

All times are in EDT time to prevent confusion due to time zone crossing. See the SWA167 flight status page for this flight to view local times or setup timezone preferences in your user account.

Time Position Orientation Groundspeed Altitude Reporting Facility
EDT Latitude Longitude Course Direction KTS MPH feet Rate Location/Type
05:20PM 32.8500 -96.8667 301° West 153 176 1,500  Level Dallas / Fort Worth TRACON
05:22PM 32.9000 -96.9667 301° West 228 262 6,500 2,280 Climbing Dallas / Fort Worth TRACON
05:23PM 32.8333 -97.0000 203° Southwest 299 344 8,700 2,220 Climbing Dallas / Fort Worth TRACON
05:25PM 32.6242 -97.0558 193° South 339 390 14,200 2,460 Climbing Fort Worth Center
05:26PM 32.5261 -97.0758 190° South 356 410 16,900 2,580 Climbing Fort Worth Center
05:27PM 32.4217 -97.0983 190° South 368 423 19,400 2,280 Climbing Fort Worth Center
05:28PM 32.3175 -97.1233 191° South 374 430 21,500 2,100 Climbing Fort Worth Center
05:29PM 32.2089 -97.1481 191° South 393 452 23,700 2,160 Climbing Fort Worth Center
05:30PM 32.0983 -97.1706 190° South 400 460 25,900 1,800 Climbing Fort Worth Center
05:31PM 31.9856 -97.1978 192° South 410 472 27,400 1,440 Climbing Fort Worth Center
05:33PM 31.7514 -97.2492 191° South 429 494 30,400 1,500 Climbing Houston Center
05:34PM 31.6361 -97.2814 193° South 423 487 32,200 1,440 Climbing Houston Center
05:36PM 31.4233 -97.3825 202° Southwest 410 472 34,900 900 Climbing Houston Center
05:38PM 31.2923 -97.4301 197° South  Level FlightAware Approximate
05:38PM 31.1978 -97.4883 197° South 395 455 36,000  Level Houston Center
05:40PM 31.0707 -97.5391 201° Southwest  Level FlightAware Approximate
05:40PM 30.9956 -97.5819 201° Southwest 390 449 36,000  Level Houston Center
05:41PM 30.8950 -97.6294 202° Southwest 388 447 36,000  Level Houston Center
05:42PM 30.7789 -97.6822 201° Southwest 384 442 36,000  Level Houston Center
05:43PM 30.6778 -97.7272 201° Southwest 385 443 36,000  Level Houston Center
05:44PM 30.5617 -97.7242 179° South 418 481 36,000  Level Houston Center
05:45PM 30.4453 -97.7114 175° South 416 479 36,000  Level Houston Center
05:47PM 30.3281 -97.6983 175° South 419 482 36,000  Level Houston Center
05:48PM 30.2092 -97.6856 175° South 423 487 36,000  Level Houston Center
05:50PM 30.0164 -97.6467 170° South  Level FlightAware Approximate
05:51PM 29.8342 -97.6456 170° South 421 484 36,000  Level Houston Center
05:52PM 29.7114 -97.6325 175° South 420 483 36,000  Level Houston Center
05:53PM 29.5950 -97.6206 175° South 421 484 36,000  Level Houston Center
05:55PM 29.3622 -97.5958 175° South 419 482 36,000  Level Houston Center
05:56PM 29.2447 -97.5836 175° South 424 488 36,000  Level Houston Center
05:57PM 29.1044 -97.5692 175° South 425 489 36,000  Level Houston Center
05:58PM 28.9864 -97.5564 175° South 426 490 36,000  Level Houston Center
05:59PM 28.8700 -97.5447 175° South 423 487 36,000  Level Houston Center
06:00PM 28.7525 -97.5331 175° South 425 489 36,000  Level Houston Center
06:02PM 28.4950 -97.5064 175° South 425 489 36,000  Level Houston Center
06:04PM 28.3498 -97.4771 174° South  Level FlightAware Approximate
06:04PM 28.2586 -97.4822 174° South 427 491 36,000  Level Houston Center
06:05PM 28.1403 -97.4700 175° South 427 491 36,000 -1,560 Level Houston Center
06:07PM 28.0059 -97.4429 175° South  Level FlightAware Approximate
06:09PM 27.6561 -97.4758 187° South 415 478 28,000  Level Houston Center
06:11PM 27.5345 -97.4824 183° South  Level FlightAware Approximate
06:11PM 27.4319 -97.5044 183° South 403 464 27,800  Level Houston Center
06:13PM 27.3171 -97.5129 184° South  Level FlightAware Approximate
06:13PM 27.2031 -97.5347 184° South 380 437 20,700  Level Houston Center
06:14PM 27.3108 -97.5123 185° South  Level FlightAware Approximate
06:14PM 27.1403 -97.5417 186° South 382 440 18,400  Level Houston Center
06:14PM 27.0886 -97.5478 186° South 397 457 17,100 -1,680 Descending Houston Center
06:15PM 27.2113 -97.5241 187° South  Level FlightAware Approximate
06:15PM 26.9886 -97.5622 187° South 327 376 15,900  Level Houston Center
06:16PM 26.9328 -97.5675 185° South 284 327 14,300 -2,760 Descending Houston Center
06:17PM 26.9072 -97.5744 194° South 294 338 13,100 -3,240 Descending Houston Center
06:18PM 26.8103 -97.5939 190° South 327 376 9,900 -1,860 Descending Houston Center
06:20PM 26.6542 -97.6147 187° South 275 316 7,400 -1,320 Descending Houston Center
06:20PM 26.6206 -97.6192 187° South 266 306 6,700 -1,500 Descending Houston Center
06:21PM 26.5756 -97.6256 187° South 266 306 5,900 -1,380 Descending Houston Center
06:21PM 26.5478 -97.6289 186° South 261 300 5,300 -1,380 Descending Houston Center
06:22PM 26.4708 -97.6369 185° South 252 290 3,900 -1,440 Descending Houston Center
06:23PM 26.4067 -97.6456 187° South 250 288 2,400 -1,200 Descending Houston Center
06:24PM 26.3625 -97.6506 186° South 236 272 2,000 -420 Descending Houston Center
06:24PM 26.3444 -97.6539 189° South 230 265 2,000 -720 Level Houston Center
06:25PM 26.3064 -97.6586 186° South 190 219 1,300 -840 Descending Houston Center
06:26PM 26.2608 -97.6603 182° South 124 143 400 7,020 Descending Houston Center
06:27PM 26.2358 -97.6589 177° South 133 153 16,000 18,300 Climbing Houston Center
06:29PM 26.2271 -97.6551 190° South  Level Estimated